sensor_id;sensor_type;location;lat;lon;timestamp;P1;durP1;ratioP1;P2;durP2;ratioP2
14849;SDS011;7517;48.400;11.770;2024-02-28T00:01:21;11.83;;;8.80;;
14849;SDS011;7517;48.400;11.770;2024-02-28T00:03:49;11.87;;;8.60;;
14849;SDS011;7517;48.400;11.770;2024-02-28T00:06:16;11.30;;;7.93;;
14849;SDS011;7517;48.400;11.770;2024-02-28T00:08:44;11.13;;;8.77;;
14849;SDS011;7517;48.400;11.770;2024-02-28T00:11:12;11.43;;;8.87;;
14849;SDS011;7517;48.400;11.770;2024-02-28T00:13:39;10.37;;;8.73;;
14849;SDS011;7517;48.400;11.770;2024-02-28T00:16:06;11.03;;;8.50;;
14849;SDS011;7517;48.400;11.770;2024-02-28T00:18:33;11.63;;;8.47;;
14849;SDS011;7517;48.400;11.770;2024-02-28T00:21:02;11.27;;;8.90;;
14849;SDS011;7517;48.400;11.770;2024-02-28T00:23:30;12.00;;;9.23;;
14849;SDS011;7517;48.400;11.770;2024-02-28T00:25:58;11.17;;;9.03;;
14849;SDS011;7517;48.400;11.770;2024-02-28T00:28:26;12.40;;;8.70;;
14849;SDS011;7517;48.400;11.770;2024-02-28T00:30:54;13.13;;;9.03;;
14849;SDS011;7517;48.400;11.770;2024-02-28T00:33:21;11.80;;;9.30;;
14849;SDS011;7517;48.400;11.770;2024-02-28T00:35:48;11.63;;;8.97;;
14849;SDS011;7517;48.400;11.770;2024-02-28T00:38:20;11.77;;;9.17;;
14849;SDS011;7517;48.400;11.770;2024-02-28T00:40:47;12.73;;;8.87;;
14849;SDS011;7517;48.400;11.770;2024-02-28T00:43:15;11.87;;;8.47;;
14849;SDS011;7517;48.400;11.770;2024-02-28T00:45:42;10.93;;;8.87;;
14849;SDS011;7517;48.400;11.770;2024-02-28T00:48:09;13.93;;;9.43;;
14849;SDS011;7517;48.400;11.770;2024-02-28T00:50:37;12.60;;;9.47;;
14849;SDS011;7517;48.400;11.770;2024-02-28T00:53:04;11.07;;;8.70;;
14849;SDS011;7517;48.400;11.770;2024-02-28T00:55:32;15.73;;;9.80;;
14849;SDS011;7517;48.400;11.770;2024-02-28T00:58:00;11.53;;;8.50;;
14849;SDS011;7517;48.400;11.770;2024-02-28T01:00:27;12.43;;;8.90;;
14849;SDS011;7517;48.400;11.770;2024-02-28T01:02:54;12.77;;;8.47;;
14849;SDS011;7517;48.400;11.770;2024-02-28T01:05:22;13.70;;;9.53;;
14849;SDS011;7517;48.400;11.770;2024-02-28T01:07:49;11.97;;;9.40;;
14849;SDS011;7517;48.400;11.770;2024-02-28T01:10:16;13.60;;;9.97;;
14849;SDS011;7517;48.400;11.770;2024-02-28T01:12:44;14.57;;;9.40;;
14849;SDS011;7517;48.400;11.770;2024-02-28T01:15:11;11.10;;;8.83;;
14849;SDS011;7517;48.400;11.770;2024-02-28T01:17:39;12.97;;;9.77;;
14849;SDS011;7517;48.400;11.770;2024-02-28T01:20:06;13.17;;;9.90;;
14849;SDS011;7517;48.400;11.770;2024-02-28T01:22:34;12.87;;;9.07;;
14849;SDS011;7517;48.400;11.770;2024-02-28T01:25:02;11.57;;;9.50;;
14849;SDS011;7517;48.400;11.770;2024-02-28T01:27:29;11.87;;;9.20;;
14849;SDS011;7517;48.400;11.770;2024-02-28T01:29:58;10.83;;;8.83;;
14849;SDS011;7517;48.400;11.770;2024-02-28T01:32:25;12.70;;;9.07;;
14849;SDS011;7517;48.400;11.770;2024-02-28T01:34:52;15.37;;;9.40;;
14849;SDS011;7517;48.400;11.770;2024-02-28T01:37:19;12.90;;;10.13;;
14849;SDS011;7517;48.400;11.770;2024-02-28T01:39:46;12.33;;;8.80;;
14849;SDS011;7517;48.400;11.770;2024-02-28T01:42:13;11.50;;;9.10;;
14849;SDS011;7517;48.400;11.770;2024-02-28T01:44:41;12.07;;;9.60;;
14849;SDS011;7517;48.400;11.770;2024-02-28T01:47:15;12.13;;;9.47;;
14849;SDS011;7517;48.400;11.770;2024-02-28T01:49:43;11.17;;;8.70;;
14849;SDS011;7517;48.400;11.770;2024-02-28T01:52:12;13.93;;;9.27;;
14849;SDS011;7517;48.400;11.770;2024-02-28T01:54:41;12.27;;;9.53;;
14849;SDS011;7517;48.400;11.770;2024-02-28T01:57:08;13.43;;;9.80;;
14849;SDS011;7517;48.400;11.770;2024-02-28T01:59:36;11.87;;;9.33;;
14849;SDS011;7517;48.400;11.770;2024-02-28T02:02:03;11.73;;;8.77;;
14849;SDS011;7517;48.400;11.770;2024-02-28T02:04:33;11.20;;;8.77;;
14849;SDS011;7517;48.400;11.770;2024-02-28T02:07:00;12.73;;;9.00;;
14849;SDS011;7517;48.400;11.770;2024-02-28T02:09:27;11.33;;;8.47;;
14849;SDS011;7517;48.400;11.770;2024-02-28T02:11:54;13.43;;;8.40;;
14849;SDS011;7517;48.400;11.770;2024-02-28T02:14:22;13.93;;;10.33;;
14849;SDS011;7517;48.400;11.770;2024-02-28T02:16:49;16.30;;;10.03;;
14849;SDS011;7517;48.400;11.770;2024-02-28T02:19:18;13.90;;;10.57;;
14849;SDS011;7517;48.400;11.770;2024-02-28T02:21:49;11.87;;;9.50;;
14849;SDS011;7517;48.400;11.770;2024-02-28T02:24:24;10.67;;;8.80;;
14849;SDS011;7517;48.400;11.770;2024-02-28T02:26:54;14.30;;;9.40;;
14849;SDS011;7517;48.400;11.770;2024-02-28T02:29:23;13.83;;;9.43;;
14849;SDS011;7517;48.400;11.770;2024-02-28T02:31:52;13.07;;;9.10;;
14849;SDS011;7517;48.400;11.770;2024-02-28T02:34:19;11.87;;;9.63;;
14849;SDS011;7517;48.400;11.770;2024-02-28T02:36:46;13.57;;;9.90;;
14849;SDS011;7517;48.400;11.770;2024-02-28T02:39:14;12.00;;;9.07;;
14849;SDS011;7517;48.400;11.770;2024-02-28T02:41:42;14.63;;;10.10;;
14849;SDS011;7517;48.400;11.770;2024-02-28T02:44:09;14.93;;;10.17;;
14849;SDS011;7517;48.400;11.770;2024-02-28T02:46:36;14.50;;;9.93;;
14849;SDS011;7517;48.400;11.770;2024-02-28T02:49:04;14.40;;;10.30;;
14849;SDS011;7517;48.400;11.770;2024-02-28T02:51:31;15.90;;;10.90;;
14849;SDS011;7517;48.400;11.770;2024-02-28T02:53:58;15.67;;;11.07;;
14849;SDS011;7517;48.400;11.770;2024-02-28T02:56:25;15.33;;;11.00;;
14849;SDS011;7517;48.400;11.770;2024-02-28T02:58:54;15.07;;;10.17;;
14849;SDS011;7517;48.400;11.770;2024-02-28T03:01:21;14.53;;;10.13;;
14849;SDS011;7517;48.400;11.770;2024-02-28T03:03:48;13.70;;;10.40;;
14849;SDS011;7517;48.400;11.770;2024-02-28T03:06:16;15.23;;;10.43;;
14849;SDS011;7517;48.400;11.770;2024-02-28T03:08:43;15.10;;;10.53;;
14849;SDS011;7517;48.400;11.770;2024-02-28T03:11:10;14.23;;;10.43;;
14849;SDS011;7517;48.400;11.770;2024-02-28T03:13:38;13.97;;;9.97;;
14849;SDS011;7517;48.400;11.770;2024-02-28T03:16:06;14.47;;;11.07;;
14849;SDS011;7517;48.400;11.770;2024-02-28T03:18:34;14.87;;;10.73;;
14849;SDS011;7517;48.400;11.770;2024-02-28T03:21:01;18.03;;;11.00;;
14849;SDS011;7517;48.400;11.770;2024-02-28T03:23:29;13.80;;;10.73;;
14849;SDS011;7517;48.400;11.770;2024-02-28T03:25:56;14.90;;;10.83;;
14849;SDS011;7517;48.400;11.770;2024-02-28T03:28:23;16.83;;;11.63;;
14849;SDS011;7517;48.400;11.770;2024-02-28T03:30:50;15.70;;;11.53;;
14849;SDS011;7517;48.400;11.770;2024-02-28T03:33:18;16.20;;;11.73;;
14849;SDS011;7517;48.400;11.770;2024-02-28T03:35:45;13.77;;;10.47;;
14849;SDS011;7517;48.400;11.770;2024-02-28T03:38:12;16.23;;;11.43;;
14849;SDS011;7517;48.400;11.770;2024-02-28T03:40:40;16.20;;;11.37;;
14849;SDS011;7517;48.400;11.770;2024-02-28T03:43:07;15.33;;;10.47;;
14849;SDS011;7517;48.400;11.770;2024-02-28T03:45:36;14.40;;;10.90;;
14849;SDS011;7517;48.400;11.770;2024-02-28T03:48:04;15.77;;;11.30;;
14849;SDS011;7517;48.400;11.770;2024-02-28T03:50:33;16.67;;;11.67;;
14849;SDS011;7517;48.400;11.770;2024-02-28T03:53:00;14.10;;;11.00;;
14849;SDS011;7517;48.400;11.770;2024-02-28T03:55:27;14.47;;;10.53;;
14849;SDS011;7517;48.400;11.770;2024-02-28T03:57:55;16.00;;;11.57;;
14849;SDS011;7517;48.400;11.770;2024-02-28T04:00:22;17.43;;;11.70;;
14849;SDS011;7517;48.400;11.770;2024-02-28T04:02:50;17.13;;;11.50;;
14849;SDS011;7517;48.400;11.770;2024-02-28T04:05:17;17.13;;;11.33;;
14849;SDS011;7517;48.400;11.770;2024-02-28T04:07:46;17.03;;;11.60;;
14849;SDS011;7517;48.400;11.770;2024-02-28T04:10:13;15.37;;;11.17;;
14849;SDS011;7517;48.400;11.770;2024-02-28T04:12:42;15.57;;;11.27;;
14849;SDS011;7517;48.400;11.770;2024-02-28T04:15:10;15.07;;;11.20;;
14849;SDS011;7517;48.400;11.770;2024-02-28T04:17:37;15.47;;;11.13;;
14849;SDS011;7517;48.400;11.770;2024-02-28T04:20:07;14.13;;;10.27;;
14849;SDS011;7517;48.400;11.770;2024-02-28T04:22:35;16.27;;;10.63;;
14849;SDS011;7517;48.400;11.770;2024-02-28T04:25:05;18.27;;;11.77;;
14849;SDS011;7517;48.400;11.770;2024-02-28T04:27:34;16.03;;;11.53;;
14849;SDS011;7517;48.400;11.770;2024-02-28T04:30:01;16.40;;;11.57;;
14849;SDS011;7517;48.400;11.770;2024-02-28T04:32:29;19.07;;;12.63;;
14849;SDS011;7517;48.400;11.770;2024-02-28T04:34:56;15.43;;;11.30;;
14849;SDS011;7517;48.400;11.770;2024-02-28T04:37:23;16.93;;;11.73;;
14849;SDS011;7517;48.400;11.770;2024-02-28T04:39:50;20.40;;;12.80;;
14849;SDS011;7517;48.400;11.770;2024-02-28T04:42:19;17.67;;;11.83;;
14849;SDS011;7517;48.400;11.770;2024-02-28T04:44:46;16.77;;;11.93;;
14849;SDS011;7517;48.400;11.770;2024-02-28T04:47:13;16.27;;;11.80;;
14849;SDS011;7517;48.400;11.770;2024-02-28T04:49:40;17.03;;;11.57;;
14849;SDS011;7517;48.400;11.770;2024-02-28T04:52:08;18.57;;;12.37;;
14849;SDS011;7517;48.400;11.770;2024-02-28T04:54:35;15.83;;;12.20;;
14849;SDS011;7517;48.400;11.770;2024-02-28T04:57:02;17.43;;;11.97;;
14849;SDS011;7517;48.400;11.770;2024-02-28T04:59:31;16.53;;;10.80;;
14849;SDS011;7517;48.400;11.770;2024-02-28T05:01:58;20.33;;;12.23;;
14849;SDS011;7517;48.400;11.770;2024-02-28T05:04:25;15.90;;;11.67;;
14849;SDS011;7517;48.400;11.770;2024-02-28T05:06:53;16.67;;;12.10;;
14849;SDS011;7517;48.400;11.770;2024-02-28T05:09:20;17.93;;;12.03;;
14849;SDS011;7517;48.400;11.770;2024-02-28T05:11:46;16.83;;;11.60;;
14849;SDS011;7517;48.400;11.770;2024-02-28T05:14:13;16.30;;;11.53;;
14849;SDS011;7517;48.400;11.770;2024-02-28T05:16:41;14.97;;;11.60;;
14849;SDS011;7517;48.400;11.770;2024-02-28T05:19:08;16.70;;;12.07;;
14849;SDS011;7517;48.400;11.770;2024-02-28T05:21:39;17.70;;;12.00;;
14849;SDS011;7517;48.400;11.770;2024-02-28T05:24:07;18.03;;;11.80;;
14849;SDS011;7517;48.400;11.770;2024-02-28T05:26:35;15.70;;;10.83;;
14849;SDS011;7517;48.400;11.770;2024-02-28T05:29:02;17.50;;;12.13;;
14849;SDS011;7517;48.400;11.770;2024-02-28T05:31:31;17.67;;;12.43;;
14849;SDS011;7517;48.400;11.770;2024-02-28T05:34:00;18.63;;;13.07;;
14849;SDS011;7517;48.400;11.770;2024-02-28T05:36:28;15.93;;;11.93;;
14849;SDS011;7517;48.400;11.770;2024-02-28T05:38:56;16.77;;;12.27;;
14849;SDS011;7517;48.400;11.770;2024-02-28T05:41:26;18.93;;;12.13;;
14849;SDS011;7517;48.400;11.770;2024-02-28T05:43:53;16.73;;;11.43;;
14849;SDS011;7517;48.400;11.770;2024-02-28T05:46:21;17.50;;;12.17;;
14849;SDS011;7517;48.400;11.770;2024-02-28T05:48:48;17.00;;;12.30;;
14849;SDS011;7517;48.400;11.770;2024-02-28T05:51:17;14.87;;;11.43;;
14849;SDS011;7517;48.400;11.770;2024-02-28T05:53:45;17.17;;;11.90;;
14849;SDS011;7517;48.400;11.770;2024-02-28T05:56:12;16.60;;;11.37;;
14849;SDS011;7517;48.400;11.770;2024-02-28T05:58:40;16.93;;;11.83;;
14849;SDS011;7517;48.400;11.770;2024-02-28T06:01:09;16.67;;;11.93;;
14849;SDS011;7517;48.400;11.770;2024-02-28T06:03:36;19.10;;;12.60;;
14849;SDS011;7517;48.400;11.770;2024-02-28T06:06:04;20.77;;;13.83;;
14849;SDS011;7517;48.400;11.770;2024-02-28T06:08:33;18.73;;;13.70;;
14849;SDS011;7517;48.400;11.770;2024-02-28T06:11:04;17.30;;;12.27;;
14849;SDS011;7517;48.400;11.770;2024-02-28T06:13:31;18.03;;;12.00;;
14849;SDS011;7517;48.400;11.770;2024-02-28T06:15:59;18.17;;;12.00;;
14849;SDS011;7517;48.400;11.770;2024-02-28T06:18:27;18.10;;;12.03;;
14849;SDS011;7517;48.400;11.770;2024-02-28T06:20:58;16.83;;;12.00;;
14849;SDS011;7517;48.400;11.770;2024-02-28T06:23:26;17.50;;;11.07;;
14849;SDS011;7517;48.400;11.770;2024-02-28T06:25:54;19.00;;;12.30;;
14849;SDS011;7517;48.400;11.770;2024-02-28T06:28:22;16.77;;;11.70;;
14849;SDS011;7517;48.400;11.770;2024-02-28T06:30:49;17.90;;;12.40;;
14849;SDS011;7517;48.400;11.770;2024-02-28T06:33:15;18.13;;;12.87;;
14849;SDS011;7517;48.400;11.770;2024-02-28T06:35:42;17.50;;;11.93;;
14849;SDS011;7517;48.400;11.770;2024-02-28T06:38:09;16.97;;;11.87;;
14849;SDS011;7517;48.400;11.770;2024-02-28T06:40:36;18.37;;;12.67;;
14849;SDS011;7517;48.400;11.770;2024-02-28T06:43:05;16.97;;;11.50;;
14849;SDS011;7517;48.400;11.770;2024-02-28T06:45:32;20.03;;;12.53;;
14849;SDS011;7517;48.400;11.770;2024-02-28T06:48:00;19.50;;;12.07;;
14849;SDS011;7517;48.400;11.770;2024-02-28T06:50:28;16.87;;;12.63;;
14849;SDS011;7517;48.400;11.770;2024-02-28T06:52:55;17.33;;;12.73;;
14849;SDS011;7517;48.400;11.770;2024-02-28T06:55:22;19.33;;;12.93;;
14849;SDS011;7517;48.400;11.770;2024-02-28T06:57:50;18.33;;;12.57;;
14849;SDS011;7517;48.400;11.770;2024-02-28T07:00:18;18.37;;;13.07;;
14849;SDS011;7517;48.400;11.770;2024-02-28T07:02:46;16.60;;;12.77;;
14849;SDS011;7517;48.400;11.770;2024-02-28T07:05:13;18.40;;;12.53;;
14849;SDS011;7517;48.400;11.770;2024-02-28T07:07:40;17.30;;;11.40;;
14849;SDS011;7517;48.400;11.770;2024-02-28T07:10:07;18.23;;;12.67;;
14849;SDS011;7517;48.400;11.770;2024-02-28T07:12:35;18.77;;;12.63;;
14849;SDS011;7517;48.400;11.770;2024-02-28T07:15:03;17.53;;;12.10;;
14849;SDS011;7517;48.400;11.770;2024-02-28T07:17:32;17.97;;;11.83;;
14849;SDS011;7517;48.400;11.770;2024-02-28T07:19:59;19.60;;;12.97;;
14849;SDS011;7517;48.400;11.770;2024-02-28T07:22:26;16.43;;;11.47;;
14849;SDS011;7517;48.400;11.770;2024-02-28T07:24:53;15.97;;;11.60;;
14849;SDS011;7517;48.400;11.770;2024-02-28T07:27:21;19.40;;;12.87;;
14849;SDS011;7517;48.400;11.770;2024-02-28T07:29:49;20.73;;;14.17;;
14849;SDS011;7517;48.400;11.770;2024-02-28T07:32:16;19.50;;;12.73;;
14849;SDS011;7517;48.400;11.770;2024-02-28T07:34:45;17.20;;;12.30;;
14849;SDS011;7517;48.400;11.770;2024-02-28T07:37:12;21.47;;;13.17;;
14849;SDS011;7517;48.400;11.770;2024-02-28T07:39:39;19.53;;;12.67;;
14849;SDS011;7517;48.400;11.770;2024-02-28T07:42:06;19.50;;;12.93;;
14849;SDS011;7517;48.400;11.770;2024-02-28T07:44:33;22.37;;;14.73;;
14849;SDS011;7517;48.400;11.770;2024-02-28T07:47:00;21.47;;;14.23;;
14849;SDS011;7517;48.400;11.770;2024-02-28T07:49:27;23.07;;;14.20;;
14849;SDS011;7517;48.400;11.770;2024-02-28T07:51:56;22.50;;;13.90;;
14849;SDS011;7517;48.400;11.770;2024-02-28T07:54:23;21.63;;;14.33;;
14849;SDS011;7517;48.400;11.770;2024-02-28T07:56:50;23.63;;;14.47;;
14849;SDS011;7517;48.400;11.770;2024-02-28T07:59:18;24.83;;;15.07;;
14849;SDS011;7517;48.400;11.770;2024-02-28T08:01:45;24.17;;;14.70;;
14849;SDS011;7517;48.400;11.770;2024-02-28T08:04:12;23.67;;;15.20;;
14849;SDS011;7517;48.400;11.770;2024-02-28T08:06:39;25.70;;;15.50;;
14849;SDS011;7517;48.400;11.770;2024-02-28T08:09:08;23.57;;;14.53;;
14849;SDS011;7517;48.400;11.770;2024-02-28T08:11:36;25.57;;;15.80;;
14849;SDS011;7517;48.400;11.770;2024-02-28T08:14:03;23.53;;;14.60;;
14849;SDS011;7517;48.400;11.770;2024-02-28T08:16:30;22.70;;;14.20;;
14849;SDS011;7517;48.400;11.770;2024-02-28T08:18:58;25.77;;;15.03;;
14849;SDS011;7517;48.400;11.770;2024-02-28T08:21:25;24.77;;;15.03;;
14849;SDS011;7517;48.400;11.770;2024-02-28T08:23:52;22.60;;;15.27;;
14849;SDS011;7517;48.400;11.770;2024-02-28T08:26:22;22.80;;;14.17;;
14849;SDS011;7517;48.400;11.770;2024-02-28T08:28:50;23.57;;;14.27;;
14849;SDS011;7517;48.400;11.770;2024-02-28T08:31:17;22.57;;;14.00;;
14849;SDS011;7517;48.400;11.770;2024-02-28T08:33:44;20.80;;;14.10;;
14849;SDS011;7517;48.400;11.770;2024-02-28T08:36:11;21.53;;;14.00;;
14849;SDS011;7517;48.400;11.770;2024-02-28T08:38:38;21.97;;;14.07;;
14849;SDS011;7517;48.400;11.770;2024-02-28T08:41:05;19.50;;;13.17;;
14849;SDS011;7517;48.400;11.770;2024-02-28T08:43:37;21.10;;;13.93;;
14849;SDS011;7517;48.400;11.770;2024-02-28T08:46:04;20.43;;;13.47;;
14849;SDS011;7517;48.400;11.770;2024-02-28T08:48:32;22.20;;;13.90;;
14849;SDS011;7517;48.400;11.770;2024-02-28T08:50:59;21.47;;;14.50;;
14849;SDS011;7517;48.400;11.770;2024-02-28T08:53:26;22.60;;;13.73;;
14849;SDS011;7517;48.400;11.770;2024-02-28T08:55:53;22.93;;;14.17;;
14849;SDS011;7517;48.400;11.770;2024-02-28T08:58:20;20.07;;;13.37;;
14849;SDS011;7517;48.400;11.770;2024-02-28T09:00:49;22.83;;;14.23;;
14849;SDS011;7517;48.400;11.770;2024-02-28T09:03:16;21.40;;;13.83;;
14849;SDS011;7517;48.400;11.770;2024-02-28T09:05:44;19.60;;;12.77;;
14849;SDS011;7517;48.400;11.770;2024-02-28T09:08:12;21.87;;;13.37;;
14849;SDS011;7517;48.400;11.770;2024-02-28T09:10:39;21.27;;;13.50;;
14849;SDS011;7517;48.400;11.770;2024-02-28T09:13:07;19.23;;;13.17;;
14849;SDS011;7517;48.400;11.770;2024-02-28T09:15:35;21.80;;;14.10;;
14849;SDS011;7517;48.400;11.770;2024-02-28T09:18:04;20.13;;;13.30;;
14849;SDS011;7517;48.400;11.770;2024-02-28T09:20:31;21.13;;;13.20;;
14849;SDS011;7517;48.400;11.770;2024-02-28T09:22:59;23.20;;;14.03;;
14849;SDS011;7517;48.400;11.770;2024-02-28T09:25:26;23.13;;;14.47;;
14849;SDS011;7517;48.400;11.770;2024-02-28T09:27:53;17.90;;;13.03;;
14849;SDS011;7517;48.400;11.770;2024-02-28T09:30:20;22.83;;;14.33;;
14849;SDS011;7517;48.400;11.770;2024-02-28T09:32:47;21.73;;;14.77;;
14849;SDS011;7517;48.400;11.770;2024-02-28T09:35:16;20.70;;;13.73;;
14849;SDS011;7517;48.400;11.770;2024-02-28T09:37:43;19.27;;;13.57;;
14849;SDS011;7517;48.400;11.770;2024-02-28T09:40:10;23.40;;;14.60;;
14849;SDS011;7517;48.400;11.770;2024-02-28T09:42:39;21.03;;;14.33;;
14849;SDS011;7517;48.400;11.770;2024-02-28T09:45:07;25.80;;;14.87;;
14849;SDS011;7517;48.400;11.770;2024-02-28T09:47:38;23.23;;;14.47;;
14849;SDS011;7517;48.400;11.770;2024-02-28T09:50:06;22.33;;;14.13;;
14849;SDS011;7517;48.400;11.770;2024-02-28T09:52:36;23.97;;;13.80;;
14849;SDS011;7517;48.400;11.770;2024-02-28T09:55:03;27.00;;;15.70;;
14849;SDS011;7517;48.400;11.770;2024-02-28T09:57:31;28.17;;;15.83;;
14849;SDS011;7517;48.400;11.770;2024-02-28T10:00:02;22.57;;;14.17;;
14849;SDS011;7517;48.400;11.770;2024-02-28T10:02:34;27.53;;;15.23;;
14849;SDS011;7517;48.400;11.770;2024-02-28T10:05:06;23.37;;;14.67;;
14849;SDS011;7517;48.400;11.770;2024-02-28T10:07:36;26.80;;;15.23;;
14849;SDS011;7517;48.400;11.770;2024-02-28T10:10:03;29.80;;;16.03;;
14849;SDS011;7517;48.400;11.770;2024-02-28T10:12:34;23.67;;;14.90;;
14849;SDS011;7517;48.400;11.770;2024-02-28T10:15:01;23.37;;;14.43;;
14849;SDS011;7517;48.400;11.770;2024-02-28T10:17:28;23.67;;;14.93;;
14849;SDS011;7517;48.400;11.770;2024-02-28T10:19:57;20.63;;;13.87;;
14849;SDS011;7517;48.400;11.770;2024-02-28T10:22:25;19.77;;;13.03;;
14849;SDS011;7517;48.400;11.770;2024-02-28T10:24:58;21.93;;;13.53;;
14849;SDS011;7517;48.400;11.770;2024-02-28T10:27:26;23.97;;;15.37;;
14849;SDS011;7517;48.400;11.770;2024-02-28T10:29:53;21.00;;;13.83;;
14849;SDS011;7517;48.400;11.770;2024-02-28T10:32:21;22.70;;;14.73;;
14849;SDS011;7517;48.400;11.770;2024-02-28T10:34:48;23.93;;;14.03;;
14849;SDS011;7517;48.400;11.770;2024-02-28T10:37:15;27.30;;;15.23;;
14849;SDS011;7517;48.400;11.770;2024-02-28T10:39:44;23.87;;;14.97;;
14849;SDS011;7517;48.400;11.770;2024-02-28T10:42:13;24.43;;;14.60;;
14849;SDS011;7517;48.400;11.770;2024-02-28T10:44:42;21.47;;;13.97;;
14849;SDS011;7517;48.400;11.770;2024-02-28T10:47:09;20.73;;;13.43;;
14849;SDS011;7517;48.400;11.770;2024-02-28T10:49:38;22.90;;;14.23;;
14849;SDS011;7517;48.400;11.770;2024-02-28T10:52:09;22.97;;;14.57;;
14849;SDS011;7517;48.400;11.770;2024-02-28T10:54:39;21.50;;;14.50;;
14849;SDS011;7517;48.400;11.770;2024-02-28T10:57:09;23.80;;;14.33;;
14849;SDS011;7517;48.400;11.770;2024-02-28T10:59:44;22.97;;;14.37;;
14849;SDS011;7517;48.400;11.770;2024-02-28T11:02:12;24.37;;;13.73;;
14849;SDS011;7517;48.400;11.770;2024-02-28T11:04:40;21.10;;;14.07;;
14849;SDS011;7517;48.400;11.770;2024-02-28T11:07:08;20.87;;;13.07;;
14849;SDS011;7517;48.400;11.770;2024-02-28T11:09:35;21.40;;;14.37;;
14849;SDS011;7517;48.400;11.770;2024-02-28T11:12:03;23.60;;;14.10;;
14849;SDS011;7517;48.400;11.770;2024-02-28T11:14:32;22.73;;;14.50;;
14849;SDS011;7517;48.400;11.770;2024-02-28T11:17:03;23.70;;;14.60;;
14849;SDS011;7517;48.400;11.770;2024-02-28T11:19:32;19.97;;;13.53;;
14849;SDS011;7517;48.400;11.770;2024-02-28T11:22:00;24.10;;;15.37;;
14849;SDS011;7517;48.400;11.770;2024-02-28T11:24:29;22.53;;;14.23;;
14849;SDS011;7517;48.400;11.770;2024-02-28T11:26:57;24.07;;;14.10;;
14849;SDS011;7517;48.400;11.770;2024-02-28T11:29:24;21.50;;;13.43;;
14849;SDS011;7517;48.400;11.770;2024-02-28T11:31:55;19.10;;;13.00;;
14849;SDS011;7517;48.400;11.770;2024-02-28T11:34:22;21.93;;;14.03;;
14849;SDS011;7517;48.400;11.770;2024-02-28T11:36:50;22.43;;;14.00;;
14849;SDS011;7517;48.400;11.770;2024-02-28T11:39:18;21.00;;;13.07;;
14849;SDS011;7517;48.400;11.770;2024-02-28T11:41:46;21.70;;;13.90;;
14849;SDS011;7517;48.400;11.770;2024-02-28T11:44:15;21.20;;;13.23;;
14849;SDS011;7517;48.400;11.770;2024-02-28T11:46:44;23.67;;;14.13;;
14849;SDS011;7517;48.400;11.770;2024-02-28T11:49:15;20.73;;;13.40;;
14849;SDS011;7517;48.400;11.770;2024-02-28T11:51:42;22.37;;;14.80;;
14849;SDS011;7517;48.400;11.770;2024-02-28T11:54:11;20.63;;;12.97;;
14849;SDS011;7517;48.400;11.770;2024-02-28T11:56:38;17.97;;;13.27;;
14849;SDS011;7517;48.400;11.770;2024-02-28T11:59:06;22.53;;;13.73;;
14849;SDS011;7517;48.400;11.770;2024-02-28T12:01:37;20.17;;;13.97;;
14849;SDS011;7517;48.400;11.770;2024-02-28T12:04:08;18.70;;;13.27;;
14849;SDS011;7517;48.400;11.770;2024-02-28T12:06:37;20.67;;;14.00;;
14849;SDS011;7517;48.400;11.770;2024-02-28T12:09:06;19.93;;;13.07;;
14849;SDS011;7517;48.400;11.770;2024-02-28T12:11:35;18.73;;;12.97;;
14849;SDS011;7517;48.400;11.770;2024-02-28T12:14:02;24.37;;;14.30;;
14849;SDS011;7517;48.400;11.770;2024-02-28T12:16:32;20.77;;;12.90;;
14849;SDS011;7517;48.400;11.770;2024-02-28T12:18:59;19.60;;;13.17;;
14849;SDS011;7517;48.400;11.770;2024-02-28T12:21:26;21.07;;;12.83;;
14849;SDS011;7517;48.400;11.770;2024-02-28T12:23:56;17.50;;;13.40;;
14849;SDS011;7517;48.400;11.770;2024-02-28T12:26:23;20.70;;;13.30;;
14849;SDS011;7517;48.400;11.770;2024-02-28T12:28:50;18.70;;;13.00;;
14849;SDS011;7517;48.400;11.770;2024-02-28T12:31:17;18.60;;;13.47;;
14849;SDS011;7517;48.400;11.770;2024-02-28T12:33:46;20.40;;;13.47;;
14849;SDS011;7517;48.400;11.770;2024-02-28T12:36:13;19.47;;;12.97;;
14849;SDS011;7517;48.400;11.770;2024-02-28T12:38:40;20.50;;;13.13;;
14849;SDS011;7517;48.400;11.770;2024-02-28T12:41:09;16.80;;;12.10;;
14849;SDS011;7517;48.400;11.770;2024-02-28T12:43:38;18.20;;;12.93;;
14849;SDS011;7517;48.400;11.770;2024-02-28T12:46:05;20.80;;;13.03;;
14849;SDS011;7517;48.400;11.770;2024-02-28T12:48:36;18.47;;;12.57;;
14849;SDS011;7517;48.400;11.770;2024-02-28T12:51:05;20.40;;;13.60;;
14849;SDS011;7517;48.400;11.770;2024-02-28T12:53:32;21.00;;;12.93;;
14849;SDS011;7517;48.400;11.770;2024-02-28T12:55:59;18.73;;;12.50;;
14849;SDS011;7517;48.400;11.770;2024-02-28T12:58:28;17.80;;;12.37;;
14849;SDS011;7517;48.400;11.770;2024-02-28T13:00:55;18.77;;;12.53;;
14849;SDS011;7517;48.400;11.770;2024-02-28T13:03:23;17.93;;;12.33;;
14849;SDS011;7517;48.400;11.770;2024-02-28T13:05:50;18.20;;;12.20;;
14849;SDS011;7517;48.400;11.770;2024-02-28T13:08:20;19.67;;;13.03;;
14849;SDS011;7517;48.400;11.770;2024-02-28T13:10:48;18.77;;;12.57;;
14849;SDS011;7517;48.400;11.770;2024-02-28T13:13:15;22.17;;;12.87;;
14849;SDS011;7517;48.400;11.770;2024-02-28T13:15:43;19.13;;;12.80;;
14849;SDS011;7517;48.400;11.770;2024-02-28T13:18:11;19.00;;;12.70;;
14849;SDS011;7517;48.400;11.770;2024-02-28T13:20:38;17.03;;;12.50;;
14849;SDS011;7517;48.400;11.770;2024-02-28T13:23:06;18.73;;;12.97;;
14849;SDS011;7517;48.400;11.770;2024-02-28T13:25:33;16.13;;;11.33;;
14849;SDS011;7517;48.400;11.770;2024-02-28T13:28:00;18.70;;;13.13;;
14849;SDS011;7517;48.400;11.770;2024-02-28T13:30:27;20.73;;;12.73;;
14849;SDS011;7517;48.400;11.770;2024-02-28T13:32:56;20.80;;;13.23;;
14849;SDS011;7517;48.400;11.770;2024-02-28T13:35:23;18.10;;;12.60;;
14849;SDS011;7517;48.400;11.770;2024-02-28T13:37:51;19.47;;;13.37;;
14849;SDS011;7517;48.400;11.770;2024-02-28T13:40:19;20.40;;;12.93;;
14849;SDS011;7517;48.400;11.770;2024-02-28T13:42:46;19.63;;;13.30;;
14849;SDS011;7517;48.400;11.770;2024-02-28T13:45:13;22.43;;;13.20;;
14849;SDS011;7517;48.400;11.770;2024-02-28T13:47:41;21.17;;;12.63;;
14849;SDS011;7517;48.400;11.770;2024-02-28T13:50:09;21.23;;;13.30;;
14849;SDS011;7517;48.400;11.770;2024-02-28T13:52:37;21.53;;;13.30;;
14849;SDS011;7517;48.400;11.770;2024-02-28T13:55:04;18.63;;;13.27;;
14849;SDS011;7517;48.400;11.770;2024-02-28T13:57:38;19.73;;;13.67;;
14849;SDS011;7517;48.400;11.770;2024-02-28T14:00:05;20.83;;;12.67;;
14849;SDS011;7517;48.400;11.770;2024-02-28T14:02:38;18.50;;;12.90;;
14849;SDS011;7517;48.400;11.770;2024-02-28T14:05:06;21.27;;;14.07;;
14849;SDS011;7517;48.400;11.770;2024-02-28T14:07:35;20.70;;;14.17;;
14849;SDS011;7517;48.400;11.770;2024-02-28T14:10:04;19.77;;;13.27;;
14849;SDS011;7517;48.400;11.770;2024-02-28T14:12:36;23.20;;;14.87;;
14849;SDS011;7517;48.400;11.770;2024-02-28T14:15:03;23.57;;;14.70;;
14849;SDS011;7517;48.400;11.770;2024-02-28T14:17:32;21.47;;;13.50;;
14849;SDS011;7517;48.400;11.770;2024-02-28T14:19:59;22.13;;;13.10;;
14849;SDS011;7517;48.400;11.770;2024-02-28T14:22:26;20.13;;;13.00;;
14849;SDS011;7517;48.400;11.770;2024-02-28T14:24:54;22.90;;;14.23;;
14849;SDS011;7517;48.400;11.770;2024-02-28T14:27:22;20.00;;;13.27;;